sensor_id;sensor_type;location;lat;lon;timestamp;P1;durP1;ratioP1;P2;durP2;ratioP2
12908;SDS011;6522;49.622;6.126;2023-02-11T00:01:27;41.97;;;33.22;;
12908;SDS011;6522;49.622;6.126;2023-02-11T00:04:07;51.30;;;32.22;;
12908;SDS011;6522;49.622;6.126;2023-02-11T00:06:53;41.37;;;33.28;;
12908;SDS011;6522;49.622;6.126;2023-02-11T00:09:40;43.90;;;33.60;;
12908;SDS011;6522;49.622;6.126;2023-02-11T00:12:27;41.15;;;32.20;;
12908;SDS011;6522;49.622;6.126;2023-02-11T00:15:14;37.40;;;31.23;;
12908;SDS011;6522;49.622;6.126;2023-02-11T00:18:01;36.53;;;30.77;;
12908;SDS011;6522;49.622;6.126;2023-02-11T00:20:47;39.15;;;30.30;;
12908;SDS011;6522;49.622;6.126;2023-02-11T00:23:34;39.28;;;31.75;;
12908;SDS011;6522;49.622;6.126;2023-02-11T00:26:22;49.25;;;30.85;;
12908;SDS011;6522;49.622;6.126;2023-02-11T00:29:08;41.47;;;25.62;;
12908;SDS011;6522;49.622;6.126;2023-02-11T00:31:55;40.08;;;25.37;;
12908;SDS011;6522;49.622;6.126;2023-02-11T00:34:41;38.85;;;25.62;;
12908;SDS011;6522;49.622;6.126;2023-02-11T00:37:28;38.17;;;25.95;;
12908;SDS011;6522;49.622;6.126;2023-02-11T00:40:15;42.40;;;29.45;;
12908;SDS011;6522;49.622;6.126;2023-02-11T00:43:02;39.97;;;29.67;;
12908;SDS011;6522;49.622;6.126;2023-02-11T00:45:49;43.80;;;31.35;;
12908;SDS011;6522;49.622;6.126;2023-02-11T00:48:36;42.35;;;30.45;;
12908;SDS011;6522;49.622;6.126;2023-02-11T00:51:23;45.65;;;33.53;;
12908;SDS011;6522;49.622;6.126;2023-02-11T00:54:09;49.22;;;35.03;;
12908;SDS011;6522;49.622;6.126;2023-02-11T00:56:56;42.92;;;32.70;;
12908;SDS011;6522;49.622;6.126;2023-02-11T00:59:42;37.85;;;25.10;;
12908;SDS011;6522;49.622;6.126;2023-02-11T01:02:29;34.08;;;26.55;;
12908;SDS011;6522;49.622;6.126;2023-02-11T01:05:17;39.25;;;30.73;;
12908;SDS011;6522;49.622;6.126;2023-02-11T01:08:03;38.42;;;32.72;;
12908;SDS011;6522;49.622;6.126;2023-02-11T01:10:56;40.58;;;28.02;;
12908;SDS011;6522;49.622;6.126;2023-02-11T01:13:40;38.05;;;29.00;;
12908;SDS011;6522;49.622;6.126;2023-02-11T01:16:26;41.55;;;29.85;;
12908;SDS011;6522;49.622;6.126;2023-02-11T01:19:13;38.38;;;30.83;;
12908;SDS011;6522;49.622;6.126;2023-02-11T01:22:00;39.17;;;28.55;;
12908;SDS011;6522;49.622;6.126;2023-02-11T01:24:46;38.40;;;24.42;;
12908;SDS011;6522;49.622;6.126;2023-02-11T01:27:33;41.53;;;26.67;;
12908;SDS011;6522;49.622;6.126;2023-02-11T01:30:20;31.65;;;24.58;;
12908;SDS011;6522;49.622;6.126;2023-02-11T01:33:06;41.20;;;30.08;;
12908;SDS011;6522;49.622;6.126;2023-02-11T01:35:54;45.70;;;30.37;;
12908;SDS011;6522;49.622;6.126;2023-02-11T01:38:40;37.25;;;28.02;;
12908;SDS011;6522;49.622;6.126;2023-02-11T01:41:27;38.88;;;30.25;;
12908;SDS011;6522;49.622;6.126;2023-02-11T01:44:32;41.10;;;29.95;;
12908;SDS011;6522;49.622;6.126;2023-02-11T01:47:13;35.42;;;29.02;;
12908;SDS011;6522;49.622;6.126;2023-02-11T01:50:00;41.10;;;29.15;;
12908;SDS011;6522;49.622;6.126;2023-02-11T01:52:47;37.60;;;28.58;;
12908;SDS011;6522;49.622;6.126;2023-02-11T01:55:34;38.05;;;29.20;;
12908;SDS011;6522;49.622;6.126;2023-02-11T01:58:40;37.67;;;24.87;;
12908;SDS011;6522;49.622;6.126;2023-02-11T02:01:26;40.60;;;24.58;;
12908;SDS011;6522;49.622;6.126;2023-02-11T02:04:12;37.65;;;27.40;;
12908;SDS011;6522;49.622;6.126;2023-02-11T02:07:02;36.17;;;27.30;;
12908;SDS011;6522;49.622;6.126;2023-02-11T02:09:48;40.25;;;28.48;;
12908;SDS011;6522;49.622;6.126;2023-02-11T02:12:33;39.92;;;28.70;;
12908;SDS011;6522;49.622;6.126;2023-02-11T02:15:24;38.47;;;29.65;;
12908;SDS011;6522;49.622;6.126;2023-02-11T02:18:14;35.45;;;26.48;;
12908;SDS011;6522;49.622;6.126;2023-02-11T02:26:42;35.95;;;27.83;;
12908;SDS011;6522;49.622;6.126;2023-02-11T02:38:22;36.00;;;24.10;;
12908;SDS011;6522;49.622;6.126;2023-02-11T02:41:09;39.22;;;23.60;;
12908;SDS011;6522;49.622;6.126;2023-02-11T02:43:54;33.22;;;23.00;;
12908;SDS011;6522;49.622;6.126;2023-02-11T02:46:41;37.15;;;27.17;;
12908;SDS011;6522;49.622;6.126;2023-02-11T02:49:28;36.45;;;23.98;;
12908;SDS011;6522;49.622;6.126;2023-02-11T02:52:17;36.97;;;25.35;;
12908;SDS011;6522;49.622;6.126;2023-02-11T02:58:07;39.83;;;28.50;;
12908;SDS011;6522;49.622;6.126;2023-02-11T03:00:58;39.47;;;31.70;;
12908;SDS011;6522;49.622;6.126;2023-02-11T03:03:42;39.25;;;29.52;;
12908;SDS011;6522;49.622;6.126;2023-02-11T03:09:28;36.85;;;28.92;;
12908;SDS011;6522;49.622;6.126;2023-02-11T03:12:13;43.58;;;28.30;;
12908;SDS011;6522;49.622;6.126;2023-02-11T03:15:00;39.55;;;29.75;;
12908;SDS011;6522;49.622;6.126;2023-02-11T03:17:47;38.97;;;27.33;;
12908;SDS011;6522;49.622;6.126;2023-02-11T03:20:34;40.33;;;29.37;;
12908;SDS011;6522;49.622;6.126;2023-02-11T03:23:22;38.75;;;29.65;;
12908;SDS011;6522;49.622;6.126;2023-02-11T03:28:54;39.20;;;28.08;;
12908;SDS011;6522;49.622;6.126;2023-02-11T03:31:45;35.42;;;26.05;;
12908;SDS011;6522;49.622;6.126;2023-02-11T03:34:44;38.65;;;28.65;;
12908;SDS011;6522;49.622;6.126;2023-02-11T03:37:31;37.70;;;27.40;;
12908;SDS011;6522;49.622;6.126;2023-02-11T03:40:18;46.67;;;30.52;;
12908;SDS011;6522;49.622;6.126;2023-02-11T03:43:07;38.78;;;31.37;;
12908;SDS011;6522;49.622;6.126;2023-02-11T03:45:52;37.90;;;23.90;;
12908;SDS011;6522;49.622;6.126;2023-02-11T03:48:42;33.42;;;23.70;;
12908;SDS011;6522;49.622;6.126;2023-02-11T03:51:26;41.92;;;29.87;;
12908;SDS011;6522;49.622;6.126;2023-02-11T03:54:13;36.25;;;28.15;;
12908;SDS011;6522;49.622;6.126;2023-02-11T03:57:00;37.58;;;28.73;;
12908;SDS011;6522;49.622;6.126;2023-02-11T03:59:54;40.05;;;29.55;;
12908;SDS011;6522;49.622;6.126;2023-02-11T04:02:40;35.25;;;27.65;;
12908;SDS011;6522;49.622;6.126;2023-02-11T04:05:27;39.55;;;30.70;;
12908;SDS011;6522;49.622;6.126;2023-02-11T04:08:14;38.95;;;29.60;;
12908;SDS011;6522;49.622;6.126;2023-02-11T04:11:01;40.33;;;30.45;;
12908;SDS011;6522;49.622;6.126;2023-02-11T04:13:48;40.95;;;30.98;;
12908;SDS011;6522;49.622;6.126;2023-02-11T04:16:35;38.75;;;29.12;;
12908;SDS011;6522;49.622;6.126;2023-02-11T04:19:22;44.13;;;31.27;;
12908;SDS011;6522;49.622;6.126;2023-02-11T04:22:09;41.03;;;25.00;;
12908;SDS011;6522;49.622;6.126;2023-02-11T04:24:55;42.10;;;27.20;;
12908;SDS011;6522;49.622;6.126;2023-02-11T04:27:42;41.50;;;29.00;;
12908;SDS011;6522;49.622;6.126;2023-02-11T04:30:29;40.33;;;25.40;;
12908;SDS011;6522;49.622;6.126;2023-02-11T04:33:15;39.75;;;24.40;;
12908;SDS011;6522;49.622;6.126;2023-02-11T04:36:02;40.70;;;29.77;;
12908;SDS011;6522;49.622;6.126;2023-02-11T04:38:49;40.75;;;30.45;;
12908;SDS011;6522;49.622;6.126;2023-02-11T04:41:36;45.53;;;31.23;;
12908;SDS011;6522;49.622;6.126;2023-02-11T04:44:22;44.58;;;32.53;;
12908;SDS011;6522;49.622;6.126;2023-02-11T04:47:09;38.60;;;30.42;;
12908;SDS011;6522;49.622;6.126;2023-02-11T04:49:56;43.72;;;26.60;;
12908;SDS011;6522;49.622;6.126;2023-02-11T04:52:42;42.70;;;27.83;;
12908;SDS011;6522;49.622;6.126;2023-02-11T04:55:29;41.10;;;29.10;;
12908;SDS011;6522;49.622;6.126;2023-02-11T04:58:17;38.08;;;31.40;;
12908;SDS011;6522;49.622;6.126;2023-02-11T05:01:07;43.35;;;32.78;;
12908;SDS011;6522;49.622;6.126;2023-02-11T05:03:53;44.92;;;34.75;;
12908;SDS011;6522;49.622;6.126;2023-02-11T05:06:40;42.17;;;31.58;;
12908;SDS011;6522;49.622;6.126;2023-02-11T05:09:27;47.83;;;34.25;;
12908;SDS011;6522;49.622;6.126;2023-02-11T05:12:14;46.25;;;33.70;;
12908;SDS011;6522;49.622;6.126;2023-02-11T05:15:01;44.75;;;31.58;;
12908;SDS011;6522;49.622;6.126;2023-02-11T05:17:48;45.38;;;34.53;;
12908;SDS011;6522;49.622;6.126;2023-02-11T05:20:36;49.47;;;38.15;;
12908;SDS011;6522;49.622;6.126;2023-02-11T05:23:21;45.08;;;32.03;;
12908;SDS011;6522;49.622;6.126;2023-02-11T05:26:08;45.38;;;33.42;;
12908;SDS011;6522;49.622;6.126;2023-02-11T05:28:55;47.10;;;35.10;;
12908;SDS011;6522;49.622;6.126;2023-02-11T05:31:42;44.10;;;25.52;;
12908;SDS011;6522;49.622;6.126;2023-02-11T05:34:29;44.07;;;26.87;;
12908;SDS011;6522;49.622;6.126;2023-02-11T05:37:16;47.25;;;28.87;;
12908;SDS011;6522;49.622;6.126;2023-02-11T05:40:02;44.30;;;30.27;;
12908;SDS011;6522;49.622;6.126;2023-02-11T05:42:49;45.53;;;33.42;;
12908;SDS011;6522;49.622;6.126;2023-02-11T05:45:36;45.85;;;34.63;;
12908;SDS011;6522;49.622;6.126;2023-02-11T05:48:22;43.47;;;33.63;;
12908;SDS011;6522;49.622;6.126;2023-02-11T05:51:09;45.78;;;36.40;;
12908;SDS011;6522;49.622;6.126;2023-02-11T05:53:56;47.17;;;35.95;;
12908;SDS011;6522;49.622;6.126;2023-02-11T05:56:42;41.97;;;34.13;;
12908;SDS011;6522;49.622;6.126;2023-02-11T05:59:29;50.30;;;34.65;;
12908;SDS011;6522;49.622;6.126;2023-02-11T06:02:16;54.92;;;38.22;;
12908;SDS011;6522;49.622;6.126;2023-02-11T06:05:02;49.85;;;37.90;;
12908;SDS011;6522;49.622;6.126;2023-02-11T06:07:49;47.00;;;34.90;;
12908;SDS011;6522;49.622;6.126;2023-02-11T06:10:36;50.33;;;36.97;;
12908;SDS011;6522;49.622;6.126;2023-02-11T06:13:23;51.08;;;37.03;;
12908;SDS011;6522;49.622;6.126;2023-02-11T06:16:09;49.58;;;38.88;;
12908;SDS011;6522;49.622;6.126;2023-02-11T06:18:56;42.90;;;32.00;;
12908;SDS011;6522;49.622;6.126;2023-02-11T06:21:43;48.13;;;36.53;;
12908;SDS011;6522;49.622;6.126;2023-02-11T06:24:30;48.92;;;35.85;;
12908;SDS011;6522;49.622;6.126;2023-02-11T06:27:17;57.17;;;35.80;;
12908;SDS011;6522;49.622;6.126;2023-02-11T06:30:04;51.33;;;35.35;;
12908;SDS011;6522;49.622;6.126;2023-02-11T06:32:50;51.30;;;35.15;;
12908;SDS011;6522;49.622;6.126;2023-02-11T06:35:37;47.70;;;34.08;;
12908;SDS011;6522;49.622;6.126;2023-02-11T06:38:24;49.85;;;37.28;;
12908;SDS011;6522;49.622;6.126;2023-02-11T06:41:12;51.67;;;36.78;;
12908;SDS011;6522;49.622;6.126;2023-02-11T06:43:57;53.60;;;37.55;;
12908;SDS011;6522;49.622;6.126;2023-02-11T06:46:44;56.00;;;36.63;;
12908;SDS011;6522;49.622;6.126;2023-02-11T06:49:31;41.83;;;26.37;;
12908;SDS011;6522;49.622;6.126;2023-02-11T06:52:18;38.50;;;28.35;;
12908;SDS011;6522;49.622;6.126;2023-02-11T06:55:04;44.90;;;27.83;;
12908;SDS011;6522;49.622;6.126;2023-02-11T06:57:51;49.25;;;29.00;;
12908;SDS011;6522;49.622;6.126;2023-02-11T07:00:38;46.83;;;32.08;;
12908;SDS011;6522;49.622;6.126;2023-02-11T07:03:25;49.15;;;34.28;;
12908;SDS011;6522;49.622;6.126;2023-02-11T07:06:13;47.92;;;35.05;;
12908;SDS011;6522;49.622;6.126;2023-02-11T07:08:59;50.12;;;32.75;;
12908;SDS011;6522;49.622;6.126;2023-02-11T07:11:45;43.67;;;36.50;;
12908;SDS011;6522;49.622;6.126;2023-02-11T07:14:32;43.20;;;36.38;;
12908;SDS011;6522;49.622;6.126;2023-02-11T07:17:19;45.67;;;34.33;;
12908;SDS011;6522;49.622;6.126;2023-02-11T07:20:06;44.05;;;33.20;;
12908;SDS011;6522;49.622;6.126;2023-02-11T07:22:53;42.30;;;32.90;;
12908;SDS011;6522;49.622;6.126;2023-02-11T07:25:39;44.75;;;34.40;;
12908;SDS011;6522;49.622;6.126;2023-02-11T07:28:26;47.28;;;33.88;;
12908;SDS011;6522;49.622;6.126;2023-02-11T07:31:14;47.97;;;36.28;;
12908;SDS011;6522;49.622;6.126;2023-02-11T07:34:00;46.53;;;34.40;;
12908;SDS011;6522;49.622;6.126;2023-02-11T07:36:46;45.72;;;34.13;;
12908;SDS011;6522;49.622;6.126;2023-02-11T07:39:33;44.70;;;33.88;;
12908;SDS011;6522;49.622;6.126;2023-02-11T07:42:19;43.33;;;32.30;;
12908;SDS011;6522;49.622;6.126;2023-02-11T07:45:06;39.15;;;33.65;;
12908;SDS011;6522;49.622;6.126;2023-02-11T07:47:54;44.67;;;33.42;;
12908;SDS011;6522;49.622;6.126;2023-02-11T07:50:41;36.83;;;24.30;;
12908;SDS011;6522;49.622;6.126;2023-02-11T07:53:27;34.25;;;24.40;;
12908;SDS011;6522;49.622;6.126;2023-02-11T07:56:15;43.90;;;31.55;;
12908;SDS011;6522;49.622;6.126;2023-02-11T07:59:01;48.50;;;33.05;;
12908;SDS011;6522;49.622;6.126;2023-02-11T08:01:47;41.80;;;31.98;;
12908;SDS011;6522;49.622;6.126;2023-02-11T08:04:34;43.45;;;31.08;;
12908;SDS011;6522;49.622;6.126;2023-02-11T08:07:21;44.08;;;33.10;;
12908;SDS011;6522;49.622;6.126;2023-02-11T08:10:07;44.05;;;25.98;;
12908;SDS011;6522;49.622;6.126;2023-02-11T08:12:55;33.78;;;25.15;;
12908;SDS011;6522;49.622;6.126;2023-02-11T08:15:41;39.20;;;29.67;;
12908;SDS011;6522;49.622;6.126;2023-02-11T08:18:28;37.53;;;25.92;;
12908;SDS011;6522;49.622;6.126;2023-02-11T08:21:15;39.95;;;25.25;;
12908;SDS011;6522;49.622;6.126;2023-02-11T08:24:02;43.95;;;29.70;;
12908;SDS011;6522;49.622;6.126;2023-02-11T08:26:48;40.72;;;32.17;;
12908;SDS011;6522;49.622;6.126;2023-02-11T08:29:35;39.72;;;29.52;;
12908;SDS011;6522;49.622;6.126;2023-02-11T08:32:22;44.00;;;30.37;;
12908;SDS011;6522;49.622;6.126;2023-02-11T08:35:09;37.60;;;30.88;;
12908;SDS011;6522;49.622;6.126;2023-02-11T08:37:56;41.78;;;32.67;;
12908;SDS011;6522;49.622;6.126;2023-02-11T08:40:42;42.97;;;34.20;;
12908;SDS011;6522;49.622;6.126;2023-02-11T08:43:29;44.85;;;32.50;;
12908;SDS011;6522;49.622;6.126;2023-02-11T08:46:17;46.20;;;31.45;;
12908;SDS011;6522;49.622;6.126;2023-02-11T08:49:02;44.05;;;33.72;;
12908;SDS011;6522;49.622;6.126;2023-02-11T08:51:49;41.15;;;32.97;;
12908;SDS011;6522;49.622;6.126;2023-02-11T08:54:35;45.75;;;34.63;;
12908;SDS011;6522;49.622;6.126;2023-02-11T08:57:22;40.00;;;31.12;;
12908;SDS011;6522;49.622;6.126;2023-02-11T09:00:09;43.38;;;33.75;;
12908;SDS011;6522;49.622;6.126;2023-02-11T09:02:56;40.78;;;26.25;;
12908;SDS011;6522;49.622;6.126;2023-02-11T09:05:44;42.65;;;29.35;;
12908;SDS011;6522;49.622;6.126;2023-02-11T09:08:29;45.90;;;30.12;;
12908;SDS011;6522;49.622;6.126;2023-02-11T09:11:17;45.65;;;35.40;;
12908;SDS011;6522;49.622;6.126;2023-02-11T09:14:03;52.62;;;33.60;;
12908;SDS011;6522;49.622;6.126;2023-02-11T09:16:50;44.15;;;31.50;;
12908;SDS011;6522;49.622;6.126;2023-02-11T09:19:36;46.45;;;32.35;;
12908;SDS011;6522;49.622;6.126;2023-02-11T09:22:23;60.90;;;36.55;;
12908;SDS011;6522;49.622;6.126;2023-02-11T09:25:10;41.78;;;30.55;;
12908;SDS011;6522;49.622;6.126;2023-02-11T09:27:57;43.78;;;31.17;;
12908;SDS011;6522;49.622;6.126;2023-02-11T09:30:44;43.38;;;32.90;;
12908;SDS011;6522;49.622;6.126;2023-02-11T09:33:31;43.35;;;29.73;;
12908;SDS011;6522;49.622;6.126;2023-02-11T09:36:19;43.00;;;30.15;;
12908;SDS011;6522;49.622;6.126;2023-02-11T09:39:06;46.80;;;30.48;;
12908;SDS011;6522;49.622;6.126;2023-02-11T09:42:00;37.55;;;32.38;;
12908;SDS011;6522;49.622;6.126;2023-02-11T09:44:44;45.55;;;31.02;;
12908;SDS011;6522;49.622;6.126;2023-02-11T09:47:31;46.78;;;29.67;;
12908;SDS011;6522;49.622;6.126;2023-02-11T09:50:20;42.97;;;30.33;;
12908;SDS011;6522;49.622;6.126;2023-02-11T09:56:13;42.17;;;26.00;;
12908;SDS011;6522;49.622;6.126;2023-02-11T09:58:56;43.28;;;25.20;;
12908;SDS011;6522;49.622;6.126;2023-02-11T10:01:46;35.80;;;25.48;;
12908;SDS011;6522;49.622;6.126;2023-02-11T10:16:18;40.47;;;23.58;;
12908;SDS011;6522;49.622;6.126;2023-02-11T10:22:06;40.65;;;25.23;;
12908;SDS011;6522;49.622;6.126;2023-02-11T10:24:55;36.08;;;24.30;;
12908;SDS011;6522;49.622;6.126;2023-02-11T10:27:41;30.52;;;21.27;;
12908;SDS011;6522;49.622;6.126;2023-02-11T10:30:38;32.17;;;22.30;;
12908;SDS011;6522;49.622;6.126;2023-02-11T10:33:25;32.55;;;21.20;;
12908;SDS011;6522;49.622;6.126;2023-02-11T10:36:11;34.03;;;21.62;;
12908;SDS011;6522;49.622;6.126;2023-02-11T10:39:00;32.55;;;21.30;;
12908;SDS011;6522;49.622;6.126;2023-02-11T10:41:45;33.55;;;20.48;;
12908;SDS011;6522;49.622;6.126;2023-02-11T10:44:32;33.63;;;22.05;;
12908;SDS011;6522;49.622;6.126;2023-02-11T10:47:21;31.20;;;20.73;;
12908;SDS011;6522;49.622;6.126;2023-02-11T10:50:19;36.55;;;22.77;;
12908;SDS011;6522;49.622;6.126;2023-02-11T10:53:16;44.35;;;25.10;;
12908;SDS011;6522;49.622;6.126;2023-02-11T10:56:02;30.45;;;19.75;;
12908;SDS011;6522;49.622;6.126;2023-02-11T10:58:58;31.77;;;21.70;;
12908;SDS011;6522;49.622;6.126;2023-02-11T11:01:45;30.00;;;18.45;;
12908;SDS011;6522;49.622;6.126;2023-02-11T11:04:36;28.10;;;17.23;;
12908;SDS011;6522;49.622;6.126;2023-02-11T11:07:25;27.10;;;18.20;;
12908;SDS011;6522;49.622;6.126;2023-02-11T11:16:25;28.70;;;19.12;;
12908;SDS011;6522;49.622;6.126;2023-02-11T11:19:13;25.67;;;16.75;;
12908;SDS011;6522;49.622;6.126;2023-02-11T11:21:58;32.10;;;16.75;;
12908;SDS011;6522;49.622;6.126;2023-02-11T11:24:45;25.73;;;17.12;;
12908;SDS011;6522;49.622;6.126;2023-02-11T11:27:32;27.48;;;17.33;;
12908;SDS011;6522;49.622;6.126;2023-02-11T11:30:19;19.62;;;15.90;;
12908;SDS011;6522;49.622;6.126;2023-02-11T11:33:12;26.73;;;16.42;;
12908;SDS011;6522;49.622;6.126;2023-02-11T11:35:59;23.12;;;18.55;;
12908;SDS011;6522;49.622;6.126;2023-02-11T11:38:43;19.25;;;15.13;;
12908;SDS011;6522;49.622;6.126;2023-02-11T11:41:32;20.00;;;15.35;;
12908;SDS011;6522;49.622;6.126;2023-02-11T11:44:26;25.70;;;16.30;;
12908;SDS011;6522;49.622;6.126;2023-02-11T11:52:59;20.52;;;16.52;;
12908;SDS011;6522;49.622;6.126;2023-02-11T11:55:49;19.98;;;15.25;;
12908;SDS011;6522;49.622;6.126;2023-02-11T11:58:33;17.87;;;14.20;;
12908;SDS011;6522;49.622;6.126;2023-02-11T12:16:18;20.67;;;14.23;;
12908;SDS011;6522;49.622;6.126;2023-02-11T12:25:21;23.60;;;16.75;;
12908;SDS011;6522;49.622;6.126;2023-02-11T12:27:41;26.52;;;15.82;;
12908;SDS011;6522;49.622;6.126;2023-02-11T12:33:31;18.92;;;14.55;;
12908;SDS011;6522;49.622;6.126;2023-02-11T12:42:43;21.52;;;14.38;;
12908;SDS011;6522;49.622;6.126;2023-02-11T12:45:56;18.70;;;13.80;;
12908;SDS011;6522;49.622;6.126;2023-02-11T12:54:57;23.73;;;17.42;;
12908;SDS011;6522;49.622;6.126;2023-02-11T12:57:41;21.90;;;15.90;;
12908;SDS011;6522;49.622;6.126;2023-02-11T13:03:18;25.10;;;16.65;;
12908;SDS011;6522;49.622;6.126;2023-02-11T13:06:15;24.17;;;16.50;;
12908;SDS011;6522;49.622;6.126;2023-02-11T13:09:02;24.52;;;16.17;;
12908;SDS011;6522;49.622;6.126;2023-02-11T13:11:50;24.25;;;16.65;;
12908;SDS011;6522;49.622;6.126;2023-02-11T13:14:37;24.52;;;16.67;;
12908;SDS011;6522;49.622;6.126;2023-02-11T13:17:29;26.73;;;18.30;;
12908;SDS011;6522;49.622;6.126;2023-02-11T13:23:10;25.77;;;16.67;;
12908;SDS011;6522;49.622;6.126;2023-02-11T13:25:58;22.25;;;15.80;;
12908;SDS011;6522;49.622;6.126;2023-02-11T13:28:51;28.50;;;16.17;;
12908;SDS011;6522;49.622;6.126;2023-02-11T13:31:36;27.52;;;15.70;;
12908;SDS011;6522;49.622;6.126;2023-02-11T13:34:36;21.48;;;15.52;;
12908;SDS011;6522;49.622;6.126;2023-02-11T13:37:23;28.73;;;16.80;;
12908;SDS011;6522;49.622;6.126;2023-02-11T13:40:56;29.55;;;16.35;;
12908;SDS011;6522;49.622;6.126;2023-02-11T13:42:56;22.60;;;15.55;;
12908;SDS011;6522;49.622;6.126;2023-02-11T13:45:42;26.17;;;16.83;;
12908;SDS011;6522;49.622;6.126;2023-02-11T13:48:34;26.42;;;15.25;;
12908;SDS011;6522;49.622;6.126;2023-02-11T13:51:35;19.62;;;13.02;;
12908;SDS011;6522;49.622;6.126;2023-02-11T13:54:22;24.58;;;14.73;;
12908;SDS011;6522;49.622;6.126;2023-02-11T14:00:02;22.48;;;13.00;;
12908;SDS011;6522;49.622;6.126;2023-02-11T14:02:53;16.75;;;12.05;;
12908;SDS011;6522;49.622;6.126;2023-02-11T14:12:20;18.70;;;11.80;;
12908;SDS011;6522;49.622;6.126;2023-02-11T14:17:58;21.75;;;13.23;;
12908;SDS011;6522;49.622;6.126;2023-02-11T14:20:45;19.85;;;14.27;;
12908;SDS011;6522;49.622;6.126;2023-02-11T14:23:32;20.02;;;12.85;;
12908;SDS011;6522;49.622;6.126;2023-02-11T14:29:11;19.75;;;13.98;;
12908;SDS011;6522;49.622;6.126;2023-02-11T14:32:03;21.33;;;11.70;;
12908;SDS011;6522;49.622;6.126;2023-02-11T14:37:51;18.65;;;12.25;;
12908;SDS011;6522;49.622;6.126;2023-02-11T14:40:43;20.73;;;12.85;;
12908;SDS011;6522;49.622;6.126;2023-02-11T14:43:29;21.12;;;13.95;;
12908;SDS011;6522;49.622;6.126;2023-02-11T14:46:15;17.52;;;12.30;;
12908;SDS011;6522;49.622;6.126;2023-02-11T14:49:01;19.37;;;13.80;;
12908;SDS011;6522;49.622;6.126;2023-02-11T14:51:47;21.67;;;13.13;;
12908;SDS011;6522;49.622;6.126;2023-02-11T14:54:34;17.73;;;12.10;;
12908;SDS011;6522;49.622;6.126;2023-02-11T14:57:21;18.30;;;10.90;;
12908;SDS011;6522;49.622;6.126;2023-02-11T15:00:26;16.20;;;11.65;;
12908;SDS011;6522;49.622;6.126;2023-02-11T15:02:58;18.20;;;9.40;;
12908;SDS011;6522;49.622;6.126;2023-02-11T15:05:45;17.50;;;10.68;;
12908;SDS011;6522;49.622;6.126;2023-02-11T15:08:32;16.58;;;11.43;;
12908;SDS011;6522;49.622;6.126;2023-02-11T15:11:19;16.58;;;10.73;;
12908;SDS011;6522;49.622;6.126;2023-02-11T15:14:25;16.70;;;11.00;;
12908;SDS011;6522;49.622;6.126;2023-02-11T15:17:11;18.00;;;12.00;;
12908;SDS011;6522;49.622;6.126;2023-02-11T15:19:58;17.77;;;11.20;;
12908;SDS011;6522;49.622;6.126;2023-02-11T15:22:43;17.02;;;11.07;;
12908;SDS011;6522;49.622;6.126;2023-02-11T15:25:31;20.58;;;11.02;;
12908;SDS011;6522;49.622;6.126;2023-02-11T15:28:22;20.00;;;12.13;;
12908;SDS011;6522;49.622;6.126;2023-02-11T15:31:14;19.70;;;11.60;;
12908;SDS011;6522;49.622;6.126;2023-02-11T15:34:05;18.87;;;12.63;;
12908;SDS011;6522;49.622;6.126;2023-02-11T15:36:46;18.62;;;12.00;;
12908;SDS011;6522;49.622;6.126;2023-02-11T15:39:35;19.25;;;11.75;;
12908;SDS011;6522;49.622;6.126;2023-02-11T15:42:24;25.12;;;12.45;;
12908;SDS011;6522;49.622;6.126;2023-02-11T15:45:19;17.37;;;10.90;;
12908;SDS011;6522;49.622;6.126;2023-02-11T15:50:56;21.35;;;11.60;;
12908;SDS011;6522;49.622;6.126;2023-02-11T15:53:41;16.90;;;10.63;;
12908;SDS011;6522;49.622;6.126;2023-02-11T15:59:16;18.10;;;10.55;;
12908;SDS011;6522;49.622;6.126;2023-02-11T16:02:21;16.48;;;10.88;;
12908;SDS011;6522;49.622;6.126;2023-02-11T16:05:07;16.60;;;10.27;;
12908;SDS011;6522;49.622;6.126;2023-02-11T16:07:53;15.43;;;10.90;;
12908;SDS011;6522;49.622;6.126;2023-02-11T16:10:40;17.27;;;11.30;;
12908;SDS011;6522;49.622;6.126;2023-02-11T16:13:26;20.83;;;11.80;;
12908;SDS011;6522;49.622;6.126;2023-02-11T16:16:17;19.12;;;13.07;;
12908;SDS011;6522;49.622;6.126;2023-02-11T16:19:03;20.70;;;13.05;;
12908;SDS011;6522;49.622;6.126;2023-02-11T16:21:50;20.45;;;12.77;;
12908;SDS011;6522;49.622;6.126;2023-02-11T16:24:37;19.87;;;11.98;;
12908;SDS011;6522;49.622;6.126;2023-02-11T16:27:57;15.98;;;10.27;;
12908;SDS011;6522;49.622;6.126;2023-02-11T16:30:34;20.33;;;11.45;;
12908;SDS011;6522;49.622;6.126;2023-02-11T16:33:18;21.80;;;13.20;;
12908;SDS011;6522;49.622;6.126;2023-02-11T16:36:08;17.60;;;12.37;;
12908;SDS011;6522;49.622;6.126;2023-02-11T16:38:51;18.50;;;11.75;;
12908;SDS011;6522;49.622;6.126;2023-02-11T16:41:38;25.92;;;13.85;;
12908;SDS011;6522;49.622;6.126;2023-02-11T16:44:25;25.60;;;13.32;;
12908;SDS011;6522;49.622;6.126;2023-02-11T16:47:19;23.60;;;14.20;;
12908;SDS011;6522;49.622;6.126;2023-02-11T16:50:05;24.12;;;14.07;;
12908;SDS011;6522;49.622;6.126;2023-02-11T16:52:52;22.95;;;13.88;;
12908;SDS011;6522;49.622;6.126;2023-02-11T16:55:38;23.62;;;14.00;;
12908;SDS011;6522;49.622;6.126;2023-02-11T16:58:25;23.60;;;14.68;;
12908;SDS011;6522;49.622;6.126;2023-02-11T17:01:11;20.83;;;14.55;;
12908;SDS011;6522;49.622;6.126;2023-02-11T17:03:58;22.48;;;14.70;;
12908;SDS011;6522;49.622;6.126;2023-02-11T17:06:45;22.02;;;14.00;;
12908;SDS011;6522;49.622;6.126;2023-02-11T17:09:31;19.30;;;13.13;;
12908;SDS011;6522;49.622;6.126;2023-02-11T17:12:18;26.50;;;15.88;;
12908;SDS011;6522;49.622;6.126;2023-02-11T17:15:05;23.67;;;15.02;;
12908;SDS011;6522;49.622;6.126;2023-02-11T17:17:52;21.42;;;13.98;;
12908;SDS011;6522;49.622;6.126;2023-02-11T17:20:38;18.83;;;13.65;;
12908;SDS011;6522;49.622;6.126;2023-02-11T17:23:25;25.33;;;14.70;;
12908;SDS011;6522;49.622;6.126;2023-02-11T17:26:12;26.73;;;15.35;;
12908;SDS011;6522;49.622;6.126;2023-02-11T17:28:59;22.42;;;14.73;;
12908;SDS011;6522;49.622;6.126;2023-02-11T17:31:45;23.90;;;16.10;;
12908;SDS011;6522;49.622;6.126;2023-02-11T17:34:32;28.00;;;17.35;;
12908;SDS011;6522;49.622;6.126;2023-02-11T17:37:19;33.38;;;17.62;;
12908;SDS011;6522;49.622;6.126;2023-02-11T17:40:06;26.40;;;15.70;;
12908;SDS011;6522;49.622;6.126;2023-02-11T17:42:52;29.02;;;17.60;;
12908;SDS011;6522;49.622;6.126;2023-02-11T17:45:40;30.12;;;18.40;;
12908;SDS011;6522;49.622;6.126;2023-02-11T17:48:26;25.77;;;15.95;;
12908;SDS011;6522;49.622;6.126;2023-02-11T17:51:19;31.95;;;18.40;;
12908;SDS011;6522;49.622;6.126;2023-02-11T17:54:06;31.67;;;17.25;;
12908;SDS011;6522;49.622;6.126;2023-02-11T17:56:50;30.95;;;16.42;;
12908;SDS011;6522;49.622;6.126;2023-02-11T17:59:37;26.42;;;17.45;;
12908;SDS011;6522;49.622;6.126;2023-02-11T18:02:23;28.48;;;17.55;;
12908;SDS011;6522;49.622;6.126;2023-02-11T18:05:09;28.83;;;19.02;;
12908;SDS011;6522;49.622;6.126;2023-02-11T18:07:56;34.30;;;20.10;;
12908;SDS011;6522;49.622;6.126;2023-02-11T18:10:43;31.35;;;17.42;;
12908;SDS011;6522;49.622;6.126;2023-02-11T18:13:30;30.30;;;19.20;;
12908;SDS011;6522;49.622;6.126;2023-02-11T18:16:17;29.55;;;18.92;;
12908;SDS011;6522;49.622;6.126;2023-02-11T18:19:04;31.02;;;19.83;;
12908;SDS011;6522;49.622;6.126;2023-02-11T18:21:51;26.50;;;18.42;;
12908;SDS011;6522;49.622;6.126;2023-02-11T18:24:37;29.65;;;19.10;;
12908;SDS011;6522;49.622;6.126;2023-02-11T18:27:24;28.62;;;19.58;;
12908;SDS011;6522;49.622;6.126;2023-02-11T18:30:15;31.62;;;20.92;;
12908;SDS011;6522;49.622;6.126;2023-02-11T18:33:01;29.00;;;20.00;;